createdAt,value
2023-04-13T00:00:24.433Z,99082.53
2023-04-13T00:02:56.408Z,99085.73
2023-04-13T00:05:26.566Z,99102.77
2023-04-13T00:07:57.119Z,99108.77
2023-04-13T00:10:27.079Z,99109.30
2023-04-13T00:12:58.032Z,99110.97
2023-04-13T00:15:27.805Z,99107.70
2023-04-13T00:17:58.074Z,99118.13
2023-04-13T00:20:28.786Z,99114.78
2023-04-13T00:22:57.368Z,99117.52
2023-04-13T00:25:27.262Z,99118.13
2023-04-13T00:27:55.940Z,99115.38
2023-04-13T00:30:25.895Z,99124.21
2023-04-13T00:32:57.203Z,99118.43
2023-04-13T00:35:26.439Z,99114.24
2023-04-13T00:37:55.400Z,99104.89
2023-04-13T00:40:28.016Z,99103.83
2023-04-13T00:42:57.416Z,99111.20
2023-04-13T00:45:26.429Z,99114.47
2023-04-13T00:47:58.221Z,99110.67
2023-04-13T00:50:27.761Z,99101.39
2023-04-13T00:52:57.902Z,99095.54
2023-04-13T00:55:28.692Z,99091.36
2023-04-13T00:57:59.191Z,99095.23
2023-04-13T01:00:28.031Z,99102.69
2023-04-13T01:03:00.502Z,99095.31
2023-04-13T01:05:53.931Z,99087.09
2023-04-13T01:08:34.897Z,99085.73
2023-04-13T01:11:07.477Z,99098.27
2023-04-13T01:13:47.556Z,99098.50
2023-04-13T01:16:24.719Z,99096.07
2023-04-13T01:18:53.831Z,99100.17
2023-04-13T01:21:25.684Z,99102.69
2023-04-13T01:24:17.255Z,99096.98
2023-04-13T01:27:12.956Z,99099.03
2023-04-13T01:29:43.030Z,99102.61
2023-04-13T01:32:11.536Z,99091.36
2023-04-13T01:34:41.161Z,99097.89
2023-04-13T01:37:11.243Z,99095.35
2023-04-13T01:39:40.596Z,99087.67
2023-04-13T01:42:12.496Z,99090.94
2023-04-13T01:44:43.492Z,99086.84
2023-04-13T01:47:20.156Z,99089.58
2023-04-13T01:50:00.250Z,99087.90
2023-04-13T01:52:32.727Z,99086.23
2023-04-13T01:55:01.959Z,99089.72
2023-04-13T01:57:32.746Z,99092.54
2023-04-13T02:00:05.655Z,99092.54
2023-04-13T02:02:37.880Z,99094.21
2023-04-13T02:05:09.846Z,99088.20
2023-04-13T02:07:39.993Z,99083.56
2023-04-13T02:10:10.041Z,99081.16
2023-04-13T02:12:41.353Z,99085.58
2023-04-13T02:15:11.471Z,99093.79
2023-04-13T02:17:44.521Z,99099.27
2023-04-13T02:20:13.573Z,99108.31
2023-04-13T02:22:43.641Z,99109.15
2023-04-13T02:25:15.556Z,99106.19
2023-04-13T02:27:45.163Z,99098.20
2023-04-13T02:30:14.162Z,99093.15
2023-04-13T02:32:48.537Z,99095.81
2023-04-13T02:35:17.478Z,99100.75
2023-04-13T02:37:46.571Z,99099.69
2023-04-13T02:40:17.406Z,99090.75
2023-04-13T02:42:47.931Z,99095.88
2023-04-13T02:45:18.366Z,99089.27
2023-04-13T02:47:52.361Z,99090.56
2023-04-13T02:50:23.419Z,99092.91
2023-04-13T02:52:54.350Z,99099.67
2023-04-13T02:55:24.823Z,99099.38
2023-04-13T02:57:57.639Z,99104.84
2023-04-13T03:00:28.561Z,99099.98
2023-04-13T03:03:02.336Z,99097.55
2023-04-13T03:05:33.009Z,99097.55
2023-04-13T03:08:02.010Z,99090.94
2023-04-13T03:10:31.933Z,99091.77
2023-04-13T03:13:01.886Z,99099.75
2023-04-13T03:15:31.397Z,99104.09
2023-04-13T03:18:03.188Z,99108.19
2023-04-13T03:20:32.269Z,99107.66
2023-04-13T03:23:02.260Z,99106.52
2023-04-13T03:25:35.211Z,99105.91
2023-04-13T03:28:06.123Z,99106.13
2023-04-13T03:30:36.879Z,99110.16
2023-04-13T03:33:06.977Z,99111.53
2023-04-13T03:35:38.214Z,99122.25
2023-04-13T03:38:08.763Z,99122.33
2023-04-13T03:40:41.029Z,99130.01
2023-04-13T03:43:11.034Z,99129.17
2023-04-13T03:45:41.687Z,99131.38
2023-04-13T03:48:12.581Z,99130.84
2023-04-13T03:50:41.192Z,99128.64
2023-04-13T03:53:11.617Z,99131.68
2023-04-13T03:55:41.806Z,99130.31
2023-04-13T03:58:11.725Z,99133.35
2023-04-13T04:00:42.314Z,99128.72
2023-04-13T04:03:15.389Z,99125.67
2023-04-13T04:05:46.325Z,99131.98
2023-04-13T04:08:17.056Z,99131.15
2023-04-13T04:10:45.913Z,99131.23
2023-04-13T04:13:16.441Z,99132.37
2023-04-13T04:15:47.948Z,99135.41
2023-04-13T04:18:18.556Z,99144.99
2023-04-13T04:20:47.476Z,99139.83
2023-04-13T04:23:19.718Z,99137.39
2023-04-13T04:25:50.701Z,99151.08
2023-04-13T04:28:19.740Z,99149.48
2023-04-13T04:30:51.039Z,99153.89
2023-04-13T04:33:23.441Z,99162.95
2023-04-13T04:35:52.133Z,99165.68
2023-04-13T04:38:24.317Z,99170.55
2023-04-13T04:40:55.070Z,99166.44
2023-04-13T04:43:26.894Z,99174.95
2023-04-13T04:46:01.284Z,99167.05
2023-04-13T04:48:31.944Z,99167.69
2023-04-13T04:51:03.699Z,99167.16
2023-04-13T04:53:34.204Z,99162.83
2023-04-13T04:56:04.573Z,99154.09
2023-04-13T04:58:45.492Z,99157.66
2023-04-13T05:01:17.654Z,99153.33
2023-04-13T05:03:47.783Z,99140.25
2023-04-13T05:06:24.073Z,99145.19
2023-04-13T05:08:53.608Z,99142.77
2023-04-13T05:11:23.105Z,99152.95
2023-04-13T05:13:55.821Z,99145.88
2023-04-13T05:16:27.499Z,99141.63
2023-04-13T05:18:56.750Z,99145.28
2023-04-13T05:21:45.779Z,99153.19
2023-04-13T05:24:14.393Z,99154.44
2023-04-13T05:26:43.388Z,99152.54
2023-04-13T05:29:13.340Z,99146.61
2023-04-13T05:31:46.300Z,99148.28
2023-04-13T05:34:16.276Z,99156.88
2023-04-13T05:36:47.154Z,99158.94
2023-04-13T05:39:16.771Z,99159.09
2023-04-13T05:41:46.828Z,99155.13
2023-04-13T05:44:17.643Z,99163.42
2023-04-13T05:46:48.945Z,99161.06
2023-04-13T05:49:18.121Z,99156.34
2023-04-13T05:51:47.890Z,99161.20
2023-04-13T05:54:18.275Z,99166.06
2023-04-13T05:56:50.356Z,99161.80
2023-04-13T05:59:20.746Z,99153.11
2023-04-13T06:01:52.122Z,99162.77
2023-04-13T06:04:22.534Z,99153.28
2023-04-13T06:06:51.879Z,99153.73
2023-04-13T06:09:21.136Z,99161.19
2023-04-13T06:11:49.936Z,99168.34
2023-04-13T06:14:22.418Z,99173.52
2023-04-13T06:16:52.710Z,99165.30
2023-04-13T06:19:21.732Z,99173.75
2023-04-13T06:21:51.576Z,99169.87
2023-04-13T06:24:21.453Z,99177.56
2023-04-13T06:26:51.048Z,99176.73
2023-04-13T06:29:23.792Z,99177.33
2023-04-13T06:31:54.816Z,99180.98
2023-04-13T06:34:23.676Z,99175.88
2023-04-13T06:36:52.447Z,99183.33
2023-04-13T06:39:22.246Z,99184.09
2023-04-13T06:41:52.831Z,99196.13
2023-04-13T06:44:24.053Z,99193.09
2023-04-13T06:47:00.621Z,99188.44
2023-04-13T06:49:35.343Z,99198.64
2023-04-13T06:52:05.307Z,99200.70
2023-04-13T06:54:35.062Z,99196.59
2023-04-13T06:57:06.906Z,99205.42
2023-04-13T06:59:36.483Z,99208.00
2023-04-13T07:02:05.071Z,99196.27
2023-04-13T07:04:34.919Z,99198.02
2023-04-13T07:07:05.228Z,99196.41
2023-04-13T07:09:34.068Z,99198.16
2023-04-13T07:12:07.173Z,99185.19
2023-04-13T07:14:40.252Z,99196.53
2023-04-13T07:17:12.758Z,99204.59
2023-04-13T07:19:47.584Z,99201.83
2023-04-13T07:22:17.030Z,99202.50
2023-04-13T07:24:47.226Z,99199.89
2023-04-13T07:27:17.931Z,99198.45
2023-04-13T07:29:50.824Z,99197.61
2023-04-13T07:32:21.770Z,99191.70
2023-04-13T07:34:52.041Z,99191.97
2023-04-13T07:37:21.110Z,99195.20
2023-04-13T07:39:49.820Z,99195.98
2023-04-13T07:42:18.695Z,99200.77
2023-04-13T07:44:49.236Z,99202.63
2023-04-13T07:47:18.966Z,99203.13
2023-04-13T07:49:47.832Z,99207.73
2023-04-13T07:52:21.698Z,99215.26
2023-04-13T07:54:51.333Z,99217.82
2023-04-13T07:57:21.962Z,99220.39
2023-04-13T07:59:52.568Z,99222.36
2023-04-13T08:02:23.578Z,99226.78
2023-04-13T08:04:54.762Z,99225.22
2023-04-13T08:07:29.144Z,99226.12
2023-04-13T08:09:57.937Z,99228.92
2023-04-13T08:12:26.576Z,99221.22
2023-04-13T08:14:57.447Z,99224.86
2023-04-13T08:17:26.539Z,99230.66
2023-04-13T08:19:55.709Z,99229.22
2023-04-13T08:22:26.290Z,99231.91
2023-04-13T08:24:56.166Z,99231.80
2023-04-13T08:27:25.758Z,99235.38
2023-04-13T08:29:57.829Z,99238.48
2023-04-13T08:32:28.590Z,99231.13
2023-04-13T08:34:57.869Z,99236.45
2023-04-13T08:37:28.573Z,99229.34
2023-04-13T08:40:00.451Z,99229.63
2023-04-13T08:42:29.752Z,99233.57
2023-04-13T08:44:59.328Z,99237.21
2023-04-13T08:47:29.677Z,99239.23
2023-04-13T08:50:00.748Z,99233.84
2023-04-13T08:52:46.557Z,99234.50
2023-04-13T08:55:18.081Z,99227.52
2023-04-13T08:57:51.564Z,99235.00
2023-04-13T09:00:23.548Z,99237.26
2023-04-13T09:03:06.132Z,99228.23
2023-04-13T09:05:31.315Z,99239.22
2023-04-13T09:08:03.533Z,99234.86
2023-04-13T09:10:34.884Z,99230.81
2023-04-13T09:13:04.608Z,99234.45
2023-04-13T09:15:34.172Z,99236.96
2023-04-13T09:21:03.003Z,99240.70
2023-04-13T09:23:32.623Z,99234.66
2023-04-13T09:26:07.823Z,99239.97
2023-04-13T09:28:49.264Z,99239.78
2023-04-13T09:31:18.601Z,99243.42
2023-04-13T09:33:50.587Z,99244.20
2023-04-13T09:36:22.100Z,99237.03
2023-04-13T09:38:55.836Z,99244.74
2023-04-13T09:41:37.446Z,99242.63
2023-04-13T09:44:20.077Z,99247.16
2023-04-13T09:47:02.373Z,99245.94
2023-04-13T09:49:42.627Z,99247.78
2023-04-13T09:52:24.459Z,99243.75
2023-04-13T09:54:56.841Z,99242.97
2023-04-13T09:57:30.753Z,99244.05
2023-04-13T10:00:02.056Z,99245.47
2023-04-13T10:02:34.326Z,99262.53
2023-04-13T10:05:03.705Z,99256.19
2023-04-13T10:07:33.943Z,99254.27
2023-04-13T10:10:05.163Z,99247.88
2023-04-13T10:12:36.412Z,99255.25
2023-04-13T10:15:45.216Z,99259.38
2023-04-13T10:18:49.980Z,99260.52
2023-04-13T10:21:19.048Z,99258.30
2023-04-13T10:23:48.159Z,99258.47
2023-04-13T10:26:17.207Z,99262.55
2023-04-13T10:28:47.504Z,99261.95
2023-04-13T10:31:18.096Z,99271.00
2023-04-13T10:33:53.013Z,99272.81
2023-04-13T10:36:22.101Z,99270.20
2023-04-13T10:38:52.233Z,99274.77
2023-04-13T10:41:25.751Z,99270.59
2023-04-13T10:44:08.098Z,99275.25
2023-04-13T10:46:37.479Z,99279.27
2023-04-13T10:49:06.409Z,99275.88
2023-04-13T10:51:43.045Z,99284.08
2023-04-13T10:54:13.160Z,99278.77
2023-04-13T10:56:42.694Z,99282.20
2023-04-13T10:59:11.431Z,99289.33
2023-04-13T11:01:40.770Z,99288.73
2023-04-13T11:04:14.090Z,99296.14
2023-04-13T11:06:42.428Z,99288.67
2023-04-13T11:09:15.191Z,99297.46
2023-04-13T11:11:42.442Z,99297.46
2023-04-13T11:14:23.195Z,99302.72
2023-04-13T11:16:58.484Z,99304.04
2023-04-13T11:19:25.728Z,99305.95
2023-04-13T11:21:57.659Z,99299.61
2023-04-13T11:24:28.130Z,99307.87
2023-04-13T11:26:57.397Z,99304.52
2023-04-13T11:29:26.854Z,99302.31
2023-04-13T11:31:56.161Z,99306.67
2023-04-13T11:34:25.994Z,99312.95
2023-04-13T11:37:05.394Z,99308.73
2023-04-13T11:39:35.827Z,99309.52
2023-04-13T11:42:08.037Z,99304.20
2023-04-13T11:44:38.356Z,99306.30
2023-04-13T11:47:08.465Z,99310.66
2023-04-13T11:49:40.495Z,99310.89
2023-04-13T11:52:09.195Z,99310.89
2023-04-13T11:54:38.037Z,99311.85
2023-04-13T11:57:06.962Z,99311.43
2023-04-13T11:59:36.515Z,99320.45
2023-04-13T12:02:09.562Z,99310.41
2023-04-13T12:04:40.775Z,99309.69
2023-04-13T12:07:14.211Z,99315.90
2023-04-13T12:09:56.319Z,99330.95
2023-04-13T12:12:50.571Z,99329.20
2023-04-13T12:15:15.452Z,99332.19
2023-04-13T12:17:41.286Z,99326.94
2023-04-13T12:20:10.025Z,99338.09
2023-04-13T12:22:51.827Z,99336.79
2023-04-13T12:25:18.267Z,99348.78
2023-04-13T12:27:53.433Z,99343.45
2023-04-13T12:30:24.708Z,99348.34
2023-04-13T12:32:55.948Z,99352.70
2023-04-13T12:35:24.397Z,99349.42
2023-04-13T12:37:53.426Z,99343.93
2023-04-13T12:40:23.100Z,99352.87
2023-04-13T12:42:51.966Z,99346.77
2023-04-13T12:45:20.913Z,99345.70
2023-04-13T12:47:49.918Z,99342.89
2023-04-13T12:50:18.643Z,99347.84
2023-04-13T12:52:49.435Z,99341.58
2023-04-13T12:55:18.764Z,99341.11
2023-04-13T12:57:48.932Z,99339.81
2023-04-13T13:00:18.524Z,99349.19
2023-04-13T13:02:52.147Z,99350.26
2023-04-13T13:05:19.154Z,99365.89
2023-04-13T13:07:48.763Z,99358.66
2023-04-13T13:10:29.089Z,99361.41
2023-04-13T13:12:50.728Z,99358.30
2023-04-13T13:15:19.812Z,99362.27
2023-04-13T13:17:49.465Z,99351.76
2023-04-13T13:20:18.376Z,99353.90
2023-04-13T13:22:48.004Z,99355.80
2023-04-13T13:25:16.710Z,99354.37
2023-04-13T13:30:16.250Z,99365.20
2023-04-13T13:32:46.083Z,99362.69
2023-04-13T13:35:15.160Z,99362.16
2023-04-13T13:37:43.802Z,99363.83
2023-04-13T13:40:13.482Z,99359.72
2023-04-13T13:45:12.630Z,99372.67
2023-04-13T13:47:42.079Z,99359.48
2023-04-13T13:50:12.676Z,99352.92
2023-04-13T13:52:59.205Z,99355.44
2023-04-13T13:55:17.227Z,99362.37
2023-04-13T13:57:51.737Z,99361.06
2023-04-13T14:00:23.021Z,99356.88
2023-04-13T14:02:52.290Z,99363.14
2023-04-13T14:05:21.892Z,99360.86
2023-04-13T14:07:51.011Z,99362.23
2023-04-13T14:10:19.692Z,99362.23
2023-04-13T14:12:50.457Z,99354.30
2023-04-13T14:15:20.766Z,99358.78
2023-04-13T14:18:02.506Z,99357.48
2023-04-13T14:20:22.324Z,99359.69
2023-04-13T14:22:51.155Z,99359.69
2023-04-13T14:25:20.059Z,99364.11
2023-04-13T14:27:49.908Z,99366.93
2023-04-13T14:30:19.964Z,99363.65
2023-04-13T14:32:51.230Z,99373.26
2023-04-13T14:35:21.947Z,99366.93
2023-04-13T14:37:52.576Z,99365.86
2023-04-13T14:40:22.973Z,99370.58
2023-04-13T14:42:52.384Z,99373.39
2023-04-13T14:45:22.517Z,99372.55
2023-04-13T14:47:53.710Z,99368.14
2023-04-13T14:50:23.975Z,99375.30
2023-04-13T14:52:53.339Z,99371.19
2023-04-13T14:55:22.557Z,99373.86
2023-04-13T14:57:51.393Z,99384.23
2023-04-13T15:00:25.326Z,99377.07
2023-04-13T15:02:55.739Z,99377.77
2023-04-13T15:05:25.264Z,99376.09
2023-04-13T15:07:55.450Z,99381.81
2023-04-13T15:10:24.760Z,99392.27
2023-04-13T15:12:54.567Z,99390.52
2023-04-13T15:15:23.655Z,99389.14
2023-04-13T15:17:53.634Z,99389.38
2023-04-13T15:20:23.632Z,99390.45
2023-04-13T15:22:54.514Z,99391.52
2023-04-13T15:25:22.957Z,99392.89
2023-04-13T15:27:57.994Z,99394.27
2023-04-13T15:30:31.868Z,99392.13
2023-04-13T15:33:02.294Z,99395.70
2023-04-13T15:35:31.182Z,99390.75
2023-04-13T15:38:01.607Z,99399.83
2023-04-13T15:40:33.267Z,99404.17
2023-04-13T15:43:03.343Z,99405.55
2023-04-13T15:45:32.087Z,99409.44
2023-04-13T15:48:02.411Z,99416.52
2023-04-13T15:50:32.512Z,99415.16
2023-04-13T15:53:01.331Z,99416.22
2023-04-13T15:55:30.154Z,99418.66
2023-04-13T15:57:59.474Z,99421.10
2023-04-13T16:00:28.241Z,99426.52
2023-04-13T16:02:58.254Z,99433.61
2023-04-13T16:05:27.096Z,99433.77
2023-04-13T16:07:57.741Z,99429.34
2023-04-13T16:10:28.284Z,99432.02
2023-04-13T16:12:57.064Z,99437.51
2023-04-13T16:15:25.754Z,99433.92
2023-04-13T16:17:56.696Z,99432.55
2023-04-13T16:20:28.322Z,99430.64
2023-04-13T16:22:58.831Z,99432.55
2023-04-13T16:25:28.768Z,99438.80
2023-04-13T16:27:58.774Z,99444.95
2023-04-13T16:30:27.754Z,99444.64
2023-04-13T16:32:56.799Z,99443.20
2023-04-13T16:35:25.733Z,99447.13
2023-04-13T16:37:54.181Z,99443.23
2023-04-13T16:40:24.241Z,99440.42
2023-04-13T16:42:53.803Z,99450.33
2023-04-13T16:45:24.375Z,99449.48
2023-04-13T16:47:54.925Z,99445.30
2023-04-13T16:50:25.632Z,99453.22
2023-04-13T16:52:55.653Z,99451.84
2023-04-13T16:55:26.639Z,99449.33
2023-04-13T16:57:55.359Z,99458.32
2023-04-13T17:00:26.550Z,99454.73
2023-04-13T17:02:56.145Z,99456.11
2023-04-13T17:05:26.640Z,99458.86
2023-04-13T17:07:57.367Z,99464.80
2023-04-13T17:10:26.295Z,99468.07
2023-04-13T17:12:55.929Z,99469.22
2023-04-13T17:15:26.991Z,99476.91
2023-04-13T17:17:56.287Z,99478.28
2023-04-13T17:20:26.312Z,99487.05
2023-04-13T17:22:56.800Z,99484.00
2023-04-13T17:25:27.010Z,99488.42
2023-04-13T17:27:58.182Z,99493.60
2023-04-13T17:30:27.730Z,99502.59
2023-04-13T17:32:58.252Z,99507.77
2023-04-13T17:35:27.168Z,99501.44
2023-04-13T17:37:55.845Z,99505.25
2023-04-13T17:40:26.231Z,99509.06
2023-04-13T17:42:55.646Z,99509.59
2023-04-13T17:45:24.087Z,99508.67
2023-04-13T17:47:53.297Z,99511.95
2023-04-13T17:50:22.498Z,99511.41
2023-04-13T17:52:51.106Z,99505.54
2023-04-13T17:55:22.428Z,99509.80
2023-04-13T17:57:50.949Z,99510.55
2023-04-13T18:00:20.136Z,99514.89
2023-04-13T18:02:50.624Z,99511.22
2023-04-13T18:05:19.301Z,99511.14
2023-04-13T18:07:48.056Z,99512.43
2023-04-13T18:10:17.447Z,99520.56
2023-04-13T18:12:47.406Z,99514.47
2023-04-13T18:15:16.500Z,99516.82
2023-04-13T18:17:48.813Z,99526.33
2023-04-13T18:20:18.924Z,99528.23
2023-04-13T18:22:49.275Z,99525.18
2023-04-13T18:25:18.357Z,99525.94
2023-04-13T18:27:47.151Z,99525.09
2023-04-13T18:30:17.372Z,99530.13
2023-04-13T18:32:51.609Z,99529.91
2023-04-13T18:35:20.759Z,99520.84
2023-04-13T18:37:50.858Z,99527.39
2023-04-13T18:40:20.134Z,99525.49
2023-04-13T18:42:50.130Z,99526.55
2023-04-13T18:45:20.777Z,99528.77
2023-04-13T18:47:50.964Z,99524.56
2023-04-13T18:50:19.620Z,99526.86
2023-04-13T18:52:48.397Z,99527.70
2023-04-13T18:55:17.270Z,99534.02
2023-04-13T18:57:47.571Z,99521.69
2023-04-13T19:00:17.229Z,99521.16
2023-04-13T19:02:48.431Z,99522.83
2023-04-13T19:05:18.849Z,99520.31
2023-04-13T19:07:59.370Z,99528.54
2023-04-13T19:10:28.946Z,99519.16
2023-04-13T19:12:57.957Z,99521.37
2023-04-13T19:15:28.224Z,99531.20
2023-04-13T19:17:57.085Z,99528.67
2023-04-13T19:20:25.912Z,99532.25
2023-04-13T19:22:54.388Z,99532.79
2023-04-13T19:25:25.863Z,99530.88
2023-04-13T19:27:56.262Z,99528.37
2023-04-13T19:30:24.981Z,99533.11
2023-04-13T19:32:56.859Z,99537.88
2023-04-13T19:35:25.951Z,99533.34
2023-04-13T19:37:54.829Z,99539.34
2023-04-13T19:40:26.232Z,99542.31
2023-04-13T19:42:55.629Z,99548.85
2023-04-13T19:45:24.723Z,99541.38
2023-04-13T19:47:54.268Z,99547.92
2023-04-13T19:50:23.146Z,99551.73
2023-04-13T19:52:52.981Z,99553.01
2023-04-13T19:55:22.085Z,99550.48
2023-04-13T19:57:51.468Z,99544.39
2023-04-13T20:00:19.915Z,99547.13
2023-04-13T20:02:51.385Z,99548.19
2023-04-13T20:05:20.308Z,99553.67
2023-04-13T20:07:49.369Z,99552.30
2023-04-13T20:10:18.082Z,99555.05
2023-04-13T20:12:46.968Z,99561.36
2023-04-13T20:15:16.642Z,99556.20
2023-04-13T20:17:47.818Z,99562.30
2023-04-13T20:20:17.668Z,99559.77
2023-04-13T20:22:46.270Z,99553.98
2023-04-13T20:25:14.776Z,99566.31
2023-04-13T20:27:45.339Z,99558.84
2023-04-13T20:30:15.921Z,99564.33
2023-04-13T20:32:46.126Z,99558.00
2023-04-13T20:35:15.961Z,99554.73
2023-04-13T20:37:44.739Z,99560.22
2023-04-13T20:40:14.604Z,99559.06
2023-04-13T20:42:45.079Z,99560.88
2023-04-13T20:45:14.577Z,99562.25
2023-04-13T20:47:44.576Z,99563.52
2023-04-13T20:50:15.248Z,99562.47
2023-04-13T20:52:46.107Z,99561.63
2023-04-13T20:55:21.052Z,99558.36
2023-04-13T20:57:49.910Z,99553.31
2023-04-13T21:00:21.251Z,99563.44
2023-04-13T21:02:52.662Z,99560.91
2023-04-13T21:05:21.869Z,99557.34
2023-04-13T21:07:51.658Z,99556.59
2023-04-13T21:10:21.729Z,99554.06
2023-04-13T21:12:51.851Z,99559.77
2023-04-13T21:15:20.982Z,99561.35
2023-04-13T21:17:51.380Z,99568.82
2023-04-13T21:20:20.201Z,99566.92
2023-04-13T21:22:48.712Z,99566.08
2023-04-13T21:25:18.762Z,99570.19
2023-04-13T21:27:48.249Z,99564.63
2023-04-13T21:30:17.535Z,99567.36
2023-04-13T21:32:47.835Z,99561.04
2023-04-13T21:35:18.126Z,99565.46
2023-04-13T21:37:46.886Z,99570.94
2023-04-13T21:40:17.865Z,99571.69
2023-04-13T21:42:49.235Z,99571.16
2023-04-13T21:45:18.015Z,99570.62
2023-04-13T21:47:48.444Z,99569.48
2023-04-13T21:50:17.387Z,99564.75
2023-04-13T21:52:47.328Z,99561.48
2023-04-13T21:55:18.748Z,99568.64
2023-04-13T21:57:47.227Z,99569.80
2023-04-13T22:00:17.752Z,99564.53
2023-04-13T22:02:46.156Z,99562.54
2023-04-13T22:05:16.594Z,99563.06
2023-04-13T22:07:48.659Z,99563.60
2023-04-13T22:10:18.802Z,99562.14
2023-04-13T22:12:47.280Z,99563.41
2023-04-13T22:15:16.359Z,99560.80
2023-04-13T22:17:47.497Z,99559.87
2023-04-13T22:20:19.853Z,99561.98
2023-04-13T22:22:48.668Z,99559.47
2023-04-13T22:25:18.212Z,99565.78
2023-04-13T22:27:46.819Z,99565.38
2023-04-13T22:30:17.403Z,99566.34
2023-04-13T22:32:46.797Z,99562.45
2023-04-13T22:35:16.235Z,99571.59
2023-04-13T22:37:46.110Z,99562.02
2023-04-13T22:40:15.127Z,99564.44
2023-04-13T22:42:44.494Z,99558.13
2023-04-13T22:45:14.665Z,99561.39
2023-04-13T22:47:43.337Z,99562.45
2023-04-13T22:50:13.458Z,99564.34
2023-04-13T22:52:44.796Z,99563.19
2023-04-13T22:55:17.624Z,99561.52
2023-04-13T22:57:47.156Z,99565.09
2023-04-13T23:00:18.894Z,99566.77
2023-04-13T23:02:50.968Z,99571.09
2023-04-13T23:05:20.172Z,99569.63
2023-04-13T23:07:49.978Z,99571.74
2023-04-13T23:10:18.636Z,99569.88
2023-04-13T23:12:47.509Z,99570.27
2023-04-13T23:15:16.970Z,99571.64
2023-04-13T23:17:47.236Z,99578.48
2023-04-13T23:20:16.567Z,99574.71
2023-04-13T23:22:45.253Z,99578.30
2023-04-13T23:25:14.130Z,99581.57
2023-04-13T23:27:43.189Z,99579.89
2023-04-13T23:30:13.248Z,99572.11
2023-04-13T23:32:44.074Z,99578.11
2023-04-13T23:35:12.629Z,99580.53
2023-04-13T23:37:43.093Z,99583.05
2023-04-13T23:40:12.104Z,99586.95
2023-04-13T23:42:40.641Z,99582.94
2023-04-13T23:45:11.617Z,99580.11
2023-04-13T23:47:40.800Z,99582.22
2023-04-13T23:50:10.793Z,99579.06
2023-04-13T23:52:39.413Z,99587.49
2023-04-13T23:55:08.983Z,99586.55
2023-04-13T23:57:39.260Z,99579.92
